Northern & Central Napa County

33 Stations

15 Minute Data | America/Los_Angeles
as of 9/1/26 6:54 PM PDT
Station Date Time Temp (°F) RH (%) Dew Pt (°F) Wind Spd (mph) Wind Dir (°) Wind Gust (mph) Latest Rain (In) Daily Rain (In) Daily Max Temp (°F) Daily Min Temp (°F)
Tenma (North Calistoga) 9/1/26 1845 66.3   1.2 - - - - - 0.00 0.00 77.4   2.5 53.9   1.2
Calistoga-Solari 9/1/26 1845 65.9   2.4 58   2 50.9   1.3 7.0   2.4 WSW | 240 15.5   1.2 0.00 0.00 74.9   1.6 53.6   2.6
Calistoga-North 9/1/26 1845 66.2   3.1 62   3 52.7   1.6 - - - 0.00 0.00 77.9   1.8 56.0   0.9
Twomey Calistoga 9/1/26 1845 66.3   3.7 58   5 51.0   1.0 3.6   0.2 W | 274 9.0   1.2 0.00 0.00 77.5   4.5 52.1   4.8
Paloma 9/1/26 1845 66.4   5.3 60   7 52.3   1.7 6.9   3.6 NE | 42 15.0   7.2 0.00 0.00 78.3   3.0 56.4   0.3
Calistoga (Ranch 78) 9/1/26 1845 66.1   4.0 56   4 49.9   1.5 4.6   1.2 WNW | 284 11.3   1.3 0.00 0.00 76.3   2.6 54.7   1.7
Diamond Mtn (Schramsberg) 9/1/26 1845 62.4   1.3 64   2 50.0   0.5 - - - 0.00 0.00 72.8   3.4 53.7   0.8
Diamond Mtn (McEachran) 9/1/26 1845 63.9   3.0 62   5 50.8   0.6 - - - - - 71.9   7.7 54.3   1.2
Deer Park 9/1/26 1845 64.3   2.6 59   3 49.6   1.2 6.3   0.1 WNW | 291 14.6   3.8 0.00 0.00 75.4   3.1 55.8   1.3
St. Helena-North 9/1/26 1845 66.5   2.8 52   3 48.6   1.2 3.7   1.0 NW | 308 15.1   4.6 0.00 0.00 75.7   4.0 54.4   2.5
St. Helena (NVV Office) 9/1/26 1845 66.8   2.0 - - 3.8   0.6 WSW | 255 12.1   3.5 0.00 0.00 77.7   3.2 57.2   0.1
Tiara Fria (East St. Helena) 9/1/26 1845 67.2   2.2 54   0 50.0   1.9 5.4   0.2 W | 263 13.0   1.4 0.00 0.00 76.2   3.1 55.6   1.6
Prisoner Winery 9/1/26 1845 66.7   2.4 55   1 50.1   1.8 4.2   2.6 W | 281 12.7   7.5 0.00 0.00 76.8   4.6 53.2   2.8
Rutherford Hill Estate 9/1/26 1845 66.5   3.9 55   3 49.9   2.1 3.7   1.1 WNW | 286 11.0   3.9 0.00 0.00 78.6   1.6 57.1   1.5
Rutherford-North (Mee Ln) 9/1/26 1845 67.0   1.6 55   1 50.2   2.1 7.1   2.1 W | 270 16.2   5.5 0.00 0.00 76.5   3.2 53.1   0.9
Rutherford (STS) 9/1/26 1845 66.1   1.9 59   3 51.5   3.3 8.4   3.2 W | 264 16.5   5.5 0.00 0.00 78.6   2.6 55.8   1.1
Silver Oak OV 9/1/26 1845 68.2   0.5 52   5 50.1   2.2 7.1   0.5 WSW | 245 17.2   3.3 0.00 0.00 76.2   1.0 58.2   2.0
Oakville-NE (Ranch 88) 9/1/26 1845 69.0   1.9 46   2 47.4   3.0 4.3   1.8 NW | 307 9.4   2.5 0.00 0.00 77.4   1.8 57.5   0.7
Crossroads Ranch 9/1/26 1845 67.6   0.1 57   4 52.0   2.0 7.2   1.9 WSW | 257 16.1   4.5 0.00 0.00 76.4   1.1 58.5   2.1
Oakville 9/1/26 1845 68.0   0.6 51   6 49.3   2.4 8.6   1.8 WSW | 249 16.4   1.1 0.00 0.00 76.3   1.0 58.8   2.7
To Kalon Remote (TKKE) 9/1/26 1845 68.1   0.1 - - - - - - - 78.9   1.5 58.0   0.8
To Kalon 9/1/26 1845 67.1   0.7 55   7 50.3   2.5 6.6   1.1 W | 259 14.2   1.5 0.00 0.00 76.5   2.3 59.5   2.7
To Kalon Remote (TKN5) 9/1/26 1845 67.5   0.6 - - - - - - - 76.9   3.2 60.2   3.0
Jump Rock 9/1/26 1845 62.0   3.1 64   1 49.7   2.5 4.5   1.4 WNW | 288 10.7   3.1 0.00 0.00 70.0   2.7 54.1   10.3
State Lane Ranch 9/1/26 1845 68.8   0.9 57   2 52.9   1.8 5.7   1.3 W | 270 15.3   3.4 0.00 0.00 78.3   1.9 58.8   2.4
Yountville (Ranch 67) 9/1/26 1845 67.3   0.1 52   2 49.3   1.2 7.2   3.0 WSW | 252 18.0   8.6 0.00 0.00 74.8   0.4 58.2   3.2
Borreo (Soda Canyon) 9/1/26 1645 70.9   0.8 41   6 45.9   4.6 3.9   0.4 W | 270 9.2   1.8 0.00 0.00 74.0   0.7 56.8   3.7
Wappo Hill Floor 9/1/26 1845 68.8   0.1 50   6 49.3   3.0 2.9   0.7 W | 272 10.5   1.6 0.00 0.00 76.2   0.2 59.1   3.3
Wappo Hill 9/1/26 1845 67.8   0.7 52   3 49.3   2.3 12.6   7.6 WSW | 257 20.5   11.0 0.00 0.00 76.6   0.7 58.8   3.5
Stags Leap Dist (Chimney Rock) 9/1/26 1845 69.2   0.9 54   7 52.1   2.5 5.5   1.2 W | 268 13.5   5.5 0.00 0.00 76.8   1.1 59.3   3.4
Stags Leap Dist (Silverado Vineyards) 9/1/26 1845 68.0   0.7 50   3 49.0   2.0 1.7   0.7 SE | 145 6.6   0.9 0.00 0.00 77.9   2.4 58.4   3.2
Yountville-SE (Ranch 85) 9/1/26 1845 68.7   0.6 51   5 49.9   3.2 6.2   4.7 NW | 312 14.7   8.0 0.00 0.00 77.9   2.3 59.1   3.7
Yountville-South (Ranch 87) 9/1/26 1845 68.6   0.5 51   5 49.9   2.8 5.0   2.6 W | 280 10.6   2.4 0.00 0.00 76.5   0.8 59.0   3.3
Max     69.2 64 52.9 12.6 - 20.5 0.00 0.00 78.9 60.2
Avg     66.9 55 50.3 5.8 - 13.7 0.00 - - -
Min     62.0 46 47.4 1.7 - 6.6 0.00 0.00 70.0 52.1